Antonio Carlos, Brazil
Current Conditions -  °F | °C
As of 8:00 PM on Thursday 20 Nov 2014 (Local Time) from SBBQ Reporting Station
Clear Clear  
Wind Chill: 70°   Ceiling: Unl
Heat Index: 70°   Visibility: 6mi
Dew Point: 55°   Wind: 3mph
Humidity: 60%   Direction: 70°ENE
Pressure: 30.12"   Gusts: NA
Location:  21.32°S, 43.75°W
Report Text: SBBQ 202200Z 07003KT CAVOK 21/13 Q1020
Loading
Personal Weather Stations






























Interactive Weather Map New forecast layout! Learn more

10-Day Weather Forecast

Advertisements
Track Severe Weather on mobile